createdAt,value
2022-10-19T00:01:47.639Z,8.66
2022-10-19T00:04:35.997Z,8.70
2022-10-19T00:07:24.273Z,8.71
2022-10-19T00:10:12.496Z,8.74
2022-10-19T00:13:00.865Z,8.77
2022-10-19T00:15:49.120Z,8.79
2022-10-19T00:18:37.353Z,8.79
2022-10-19T00:21:26.775Z,8.81
2022-10-19T00:24:14.778Z,8.82
2022-10-19T00:27:02.452Z,8.84
2022-10-19T00:29:50.784Z,8.86
2022-10-19T00:32:38.965Z,8.88
2022-10-19T00:35:27.568Z,8.90
2022-10-19T00:38:21.719Z,8.92
2022-10-19T00:41:09.359Z,8.97
2022-10-19T00:44:04.459Z,8.98
2022-10-19T00:46:53.693Z,8.99
2022-10-19T00:49:46.686Z,9.04
2022-10-19T00:52:35.592Z,9.05
2022-10-19T00:55:25.679Z,9.07
2022-10-19T00:58:14.623Z,9.06
2022-10-19T01:01:09.099Z,9.07
2022-10-19T01:03:56.824Z,9.09
2022-10-19T01:06:45.203Z,9.08
2022-10-19T01:09:34.483Z,9.10
2022-10-19T01:12:51.537Z,9.10
2022-10-19T01:15:50.341Z,9.12
2022-10-19T01:18:54.973Z,9.13
2022-10-19T01:21:56.742Z,9.12
2022-10-19T01:25:55.186Z,9.13
2022-10-19T01:29:07.156Z,9.16
2022-10-19T01:32:06.623Z,9.17
2022-10-19T01:35:27.840Z,9.16
2022-10-19T01:38:27.728Z,9.17
2022-10-19T01:41:34.690Z,9.13
2022-10-19T01:44:36.404Z,9.09
2022-10-19T01:48:06.990Z,9.04
2022-10-19T01:51:20.432Z,9.09
2022-10-19T01:54:14.550Z,9.12
2022-10-19T01:57:07.707Z,9.10
2022-10-19T01:59:57.979Z,9.10
2022-10-19T02:02:51.130Z,9.09
2022-10-19T02:05:41.467Z,9.11
2022-10-19T02:08:47.954Z,9.11
2022-10-19T02:11:38.201Z,9.11
2022-10-19T02:14:35.066Z,9.13
2022-10-19T02:17:30.681Z,9.14
2022-10-19T02:20:20.702Z,9.14
2022-10-19T02:23:08.924Z,9.19
2022-10-19T02:25:58.631Z,9.19
2022-10-19T02:28:47.588Z,9.19
2022-10-19T02:31:36.505Z,9.22
2022-10-19T02:34:25.008Z,9.25
2022-10-19T02:37:13.353Z,9.28
2022-10-19T02:40:01.251Z,9.20
2022-10-19T02:43:01.745Z,9.19
2022-10-19T02:46:01.431Z,9.22
2022-10-19T02:48:52.125Z,9.21
2022-10-19T02:52:03.227Z,9.21
2022-10-19T02:54:51.454Z,9.17
2022-10-19T02:57:39.661Z,9.15
2022-10-19T03:00:27.847Z,9.17
2022-10-19T03:03:16.072Z,9.17
2022-10-19T03:06:04.433Z,9.16
2022-10-19T03:08:52.572Z,9.15
2022-10-19T03:11:40.844Z,9.16
2022-10-19T03:14:29.030Z,9.18
2022-10-19T03:17:17.301Z,9.20
2022-10-19T03:20:06.557Z,9.22
2022-10-19T03:22:54.762Z,9.23
2022-10-19T03:25:42.923Z,9.25
2022-10-19T03:28:31.958Z,9.26
2022-10-19T03:31:20.298Z,9.27
2022-10-19T03:34:08.810Z,9.28
2022-10-19T03:36:59.248Z,9.29
2022-10-19T03:39:47.779Z,9.30
2022-10-19T03:42:36.033Z,9.31
2022-10-19T03:45:24.209Z,9.32
2022-10-19T03:48:12.424Z,9.34
2022-10-19T03:51:10.123Z,9.33
2022-10-19T03:54:14.793Z,9.33
2022-10-19T03:57:02.551Z,9.34
2022-10-19T03:59:50.810Z,9.33
2022-10-19T04:02:39.178Z,9.34
2022-10-19T04:05:27.493Z,9.33
2022-10-19T04:08:15.765Z,9.35
2022-10-19T04:11:13.232Z,9.37
2022-10-19T04:14:02.042Z,9.36
2022-10-19T04:16:49.783Z,9.36
2022-10-19T04:19:37.915Z,9.34
2022-10-19T04:22:26.167Z,9.33
2022-10-19T04:25:14.379Z,9.34
2022-10-19T04:28:02.653Z,9.36
2022-10-19T04:30:50.837Z,9.38
2022-10-19T04:33:40.247Z,9.37
2022-10-19T04:36:28.161Z,9.38
2022-10-19T04:39:16.505Z,9.38
2022-10-19T04:42:08.753Z,9.37
2022-10-19T04:44:56.748Z,9.38
2022-10-19T04:47:44.994Z,9.38
2022-10-19T04:50:33.227Z,9.37
2022-10-19T04:53:22.002Z,9.38
2022-10-19T04:56:21.900Z,9.40
2022-10-19T04:59:10.144Z,9.37
2022-10-19T05:01:58.328Z,9.37
2022-10-19T05:04:48.501Z,9.35
2022-10-19T05:07:36.945Z,9.37
2022-10-19T05:10:25.295Z,9.39
2022-10-19T05:13:13.488Z,9.40
2022-10-19T05:16:06.291Z,9.42
2022-10-19T05:18:58.737Z,9.42
2022-10-19T05:21:46.882Z,9.41
2022-10-19T05:24:35.090Z,9.39
2022-10-19T05:27:23.375Z,9.35
2022-10-19T05:30:14.272Z,9.37
2022-10-19T05:33:02.566Z,9.36
2022-10-19T05:35:50.901Z,9.36
2022-10-19T05:38:39.329Z,9.37
2022-10-19T05:41:27.975Z,9.40
2022-10-19T05:44:22.424Z,9.42
2022-10-19T05:47:10.633Z,9.38
2022-10-19T05:49:58.868Z,9.38
2022-10-19T05:52:47.068Z,9.37
2022-10-19T05:55:36.266Z,9.38
2022-10-19T05:58:25.299Z,9.38
2022-10-19T06:01:15.163Z,9.39
2022-10-19T06:04:04.236Z,9.39
2022-10-19T06:06:51.941Z,9.37
2022-10-19T06:09:39.781Z,9.33
2022-10-19T06:12:27.961Z,9.32
2022-10-19T06:15:16.189Z,9.33
2022-10-19T06:18:05.383Z,9.36
2022-10-19T06:20:54.737Z,9.42
2022-10-19T06:26:36.531Z,9.54
2022-10-19T06:29:24.776Z,9.57
2022-10-19T06:32:12.983Z,9.63
2022-10-19T06:35:01.082Z,9.66
2022-10-19T06:37:49.374Z,9.68
2022-10-19T06:40:37.623Z,9.65
2022-10-19T06:43:26.208Z,9.67
2022-10-19T06:46:20.198Z,9.70
2022-10-19T06:49:07.821Z,9.73
2022-10-19T06:51:56.027Z,9.73
2022-10-19T06:54:44.190Z,9.72
2022-10-19T06:57:32.524Z,9.74
2022-10-19T07:00:21.070Z,9.74
2022-10-19T07:03:09.274Z,9.76
2022-10-19T07:06:05.174Z,9.80
2022-10-19T07:08:53.545Z,9.83
2022-10-19T07:11:45.930Z,9.85
2022-10-19T07:14:38.722Z,9.87
2022-10-19T07:17:26.992Z,9.91
2022-10-19T07:20:15.236Z,9.94
2022-10-19T07:23:03.522Z,9.94
2022-10-19T07:25:53.808Z,9.95
2022-10-19T07:28:44.428Z,10.02
2022-10-19T07:31:32.654Z,10.08
2022-10-19T07:34:23.189Z,10.13
2022-10-19T07:37:13.222Z,10.12
2022-10-19T07:40:01.420Z,10.22
2022-10-19T07:42:49.620Z,10.29
2022-10-19T07:45:37.804Z,10.25
2022-10-19T07:48:26.122Z,10.33
2022-10-19T07:51:17.076Z,10.38
2022-10-19T07:54:06.477Z,10.42
2022-10-19T07:56:54.781Z,10.46
2022-10-19T07:59:42.985Z,10.54
2022-10-19T08:02:39.642Z,10.57
2022-10-19T08:05:39.458Z,10.72
2022-10-19T08:08:28.520Z,10.68
2022-10-19T08:11:23.525Z,10.70
2022-10-19T08:14:11.843Z,10.79
2022-10-19T08:17:01.068Z,10.87
2022-10-19T08:19:49.659Z,10.90
2022-10-19T08:22:37.895Z,11.05
2022-10-19T08:25:26.080Z,11.11
2022-10-19T08:28:14.594Z,11.03
2022-10-19T08:31:15.245Z,11.00
2022-10-19T08:34:04.104Z,10.97
2022-10-19T08:36:52.303Z,10.92
2022-10-19T08:39:40.588Z,10.85
2022-10-19T08:42:52.796Z,10.86
2022-10-19T08:46:07.079Z,10.90
2022-10-19T08:48:56.278Z,10.76
2022-10-19T08:51:56.235Z,10.75
2022-10-19T08:54:53.401Z,10.76
2022-10-19T08:58:40.580Z,10.79
2022-10-19T09:01:43.727Z,10.88
2022-10-19T09:04:48.460Z,10.93
2022-10-19T09:07:45.619Z,11.07
2022-10-19T09:10:38.983Z,11.17
2022-10-19T09:14:04.281Z,11.27
2022-10-19T09:17:02.403Z,11.27
2022-10-19T09:19:51.198Z,11.45
2022-10-19T09:22:41.730Z,11.50
2022-10-19T09:25:32.411Z,11.43
2022-10-19T09:28:44.951Z,11.44
2022-10-19T09:31:43.419Z,11.41
2022-10-19T09:34:43.902Z,11.59
2022-10-19T09:37:40.613Z,11.71
2022-10-19T09:40:31.095Z,12.01
2022-10-19T09:43:21.714Z,11.91
2022-10-19T09:46:20.254Z,11.76
2022-10-19T09:49:08.184Z,11.70
2022-10-19T09:51:56.332Z,11.73
2022-10-19T09:54:45.051Z,11.70
2022-10-19T09:57:33.900Z,11.71
2022-10-19T10:00:36.376Z,11.71
2022-10-19T10:03:43.323Z,11.64
2022-10-19T10:06:31.720Z,11.66
2022-10-19T10:09:27.237Z,11.59
2022-10-19T10:12:16.533Z,11.67
2022-10-19T10:15:07.665Z,11.81
2022-10-19T10:17:58.077Z,11.81
2022-10-19T10:21:25.288Z,11.84
2022-10-19T10:24:16.347Z,11.96
2022-10-19T10:27:06.474Z,12.11
2022-10-19T10:32:54.843Z,11.96
2022-10-19T10:35:53.434Z,11.91
2022-10-19T10:38:51.935Z,11.86
2022-10-19T10:41:44.496Z,11.88
2022-10-19T10:44:36.636Z,12.00
2022-10-19T10:47:27.106Z,12.21
2022-10-19T10:50:31.808Z,12.23
2022-10-19T10:53:46.900Z,12.29
2022-10-19T10:56:35.485Z,12.36
2022-10-19T10:59:32.831Z,12.41
2022-10-19T11:02:41.552Z,12.38
2022-10-19T11:05:39.049Z,12.34
2022-10-19T11:08:49.359Z,12.36
2022-10-19T11:11:46.547Z,12.30
2022-10-19T11:14:46.595Z,12.39
2022-10-19T11:17:39.220Z,12.50
2022-10-19T11:20:32.520Z,12.49
2022-10-19T11:23:54.781Z,12.54
2022-10-19T11:27:19.631Z,12.70
2022-10-19T11:30:19.002Z,12.68
2022-10-19T11:33:55.820Z,12.64
2022-10-19T11:37:14.747Z,12.66
2022-10-19T11:40:24.151Z,12.90
2022-10-19T11:43:44.236Z,13.01
2022-10-19T11:47:19.160Z,12.90
2022-10-19T11:50:33.681Z,12.64
2022-10-19T11:54:14.446Z,12.45
2022-10-19T11:57:20.526Z,12.30
2022-10-19T12:00:38.239Z,12.13
2022-10-19T12:03:47.529Z,12.12
2022-10-19T12:07:04.557Z,12.14
2022-10-19T12:10:04.566Z,12.18
2022-10-19T12:12:58.938Z,12.24
2022-10-19T12:15:57.523Z,12.27
2022-10-19T12:18:51.707Z,12.34
2022-10-19T12:21:43.476Z,12.58
2022-10-19T12:24:34.534Z,12.85
2022-10-19T12:27:35.722Z,12.96
2022-10-19T12:30:24.901Z,13.02
2022-10-19T12:33:36.698Z,12.94
2022-10-19T12:36:56.956Z,12.73
2022-10-19T12:40:11.888Z,12.62
2022-10-19T12:43:23.222Z,12.64
2022-10-19T12:46:39.669Z,12.72
2022-10-19T12:49:30.690Z,12.67
2022-10-19T12:52:39.301Z,12.70
2022-10-19T12:55:34.806Z,12.66
2022-10-19T12:58:24.434Z,12.57
2022-10-19T13:01:21.443Z,12.74
2022-10-19T13:04:26.247Z,12.80
2022-10-19T13:07:18.850Z,12.79
2022-10-19T13:10:20.357Z,12.89
2022-10-19T13:13:55.565Z,13.07
2022-10-19T13:17:01.055Z,12.91
2022-10-19T13:19:49.343Z,13.02
2022-10-19T13:22:37.827Z,13.14
2022-10-19T13:25:37.171Z,13.15
2022-10-19T13:28:38.089Z,13.02
2022-10-19T13:31:31.375Z,12.90
2022-10-19T13:34:19.114Z,12.77
2022-10-19T13:37:13.425Z,12.80
2022-10-19T13:40:24.657Z,12.77
2022-10-19T13:44:02.193Z,12.88
2022-10-19T13:47:54.526Z,12.88
2022-10-19T13:50:59.233Z,12.94
2022-10-19T13:54:44.090Z,13.08
2022-10-19T13:57:56.158Z,13.04
2022-10-19T14:01:11.500Z,13.03
2022-10-19T14:04:20.916Z,13.03
2022-10-19T14:08:03.055Z,13.15
2022-10-19T14:11:02.906Z,13.28
2022-10-19T14:14:19.831Z,13.71
2022-10-19T14:17:28.563Z,13.82
2022-10-19T14:20:34.124Z,13.82
2022-10-19T14:23:29.959Z,13.68
2022-10-19T14:26:24.784Z,13.94
2022-10-19T14:29:13.737Z,13.66
2022-10-19T14:32:03.837Z,13.32
2022-10-19T14:34:52.908Z,13.22
2022-10-19T14:37:43.966Z,13.05
2022-10-19T14:40:41.544Z,12.93
2022-10-19T14:43:34.319Z,12.78
2022-10-19T14:46:31.203Z,12.69
2022-10-19T14:49:18.880Z,12.53
2022-10-19T14:52:09.959Z,12.41
2022-10-19T14:55:05.612Z,12.32
2022-10-19T14:57:54.128Z,12.34
2022-10-19T15:00:45.550Z,12.28
2022-10-19T15:03:34.657Z,12.27
2022-10-19T15:06:36.020Z,12.35
2022-10-19T15:09:47.439Z,12.23
2022-10-19T15:12:42.412Z,12.08
2022-10-19T15:15:33.958Z,12.04
2022-10-19T15:18:44.396Z,11.95
2022-10-19T15:21:33.464Z,11.84
2022-10-19T15:24:27.964Z,11.65
2022-10-19T15:27:22.311Z,11.42
2022-10-19T15:30:24.254Z,11.33
2022-10-19T15:33:15.568Z,11.13
2022-10-19T15:36:08.488Z,11.05
2022-10-19T15:39:17.589Z,10.92
2022-10-19T15:42:29.560Z,10.83
2022-10-19T15:45:37.636Z,10.72
2022-10-19T15:48:52.496Z,10.67
2022-10-19T15:51:46.274Z,10.57
2022-10-19T15:54:34.645Z,10.50
2022-10-19T15:57:28.254Z,10.45
2022-10-19T16:00:17.809Z,10.33
2022-10-19T16:03:06.250Z,10.21
2022-10-19T16:05:55.250Z,10.18
2022-10-19T16:08:46.382Z,10.12
2022-10-19T16:11:35.553Z,10.07
2022-10-19T16:14:26.605Z,10.02
2022-10-19T16:39:44.743Z,9.74
2022-10-19T16:42:34.774Z,9.55
2022-10-19T16:45:23.292Z,9.49
2022-10-19T16:47:50.810Z,9.49
2022-10-19T16:50:17.676Z,9.51
2022-10-19T16:52:44.390Z,9.51
2022-10-19T16:55:11.643Z,9.49
2022-10-19T16:57:38.376Z,9.50
2022-10-19T17:00:09.384Z,9.45
2022-10-19T17:02:39.869Z,9.34
2022-10-19T17:05:09.967Z,9.31
2022-10-19T17:07:36.703Z,9.23
2022-10-19T17:10:03.702Z,9.19
2022-10-19T17:12:30.393Z,9.17
2022-10-19T17:15:11.538Z,9.15
2022-10-19T17:17:43.707Z,9.06
2022-10-19T17:20:11.345Z,9.01
2022-10-19T17:22:38.090Z,9.00
2022-10-19T17:25:05.900Z,8.90
2022-10-19T17:27:32.602Z,8.67
2022-10-19T17:29:59.243Z,8.45
2022-10-19T17:32:26.023Z,8.43
2022-10-19T17:34:54.513Z,8.50
2022-10-19T17:37:21.239Z,8.46
2022-10-19T17:39:51.351Z,8.36
2022-10-19T17:42:18.295Z,8.37
2022-10-19T17:44:44.984Z,8.37
2022-10-19T17:47:11.714Z,8.38
2022-10-19T17:49:38.610Z,8.41
2022-10-19T17:52:05.555Z,8.39
2022-10-19T17:54:43.367Z,8.40
2022-10-19T17:57:18.942Z,8.39
2022-10-19T17:59:52.512Z,8.34
2022-10-19T18:02:20.521Z,8.25
2022-10-19T18:04:47.223Z,8.17
2022-10-19T18:07:13.941Z,8.14
2022-10-19T18:09:40.816Z,8.15
2022-10-19T18:12:14.468Z,8.16
2022-10-19T18:14:42.087Z,8.02
2022-10-19T18:17:10.503Z,7.90
2022-10-19T18:19:37.386Z,7.87
2022-10-19T18:22:04.337Z,7.86
2022-10-19T18:24:32.923Z,7.83
2022-10-19T18:26:59.693Z,7.85
2022-10-19T18:29:27.082Z,7.85
2022-10-19T18:31:55.127Z,7.79
2022-10-19T18:34:26.156Z,7.75
2022-10-19T18:36:54.362Z,7.77
2022-10-19T18:39:40.211Z,7.78
2022-10-19T18:42:13.813Z,7.65
2022-10-19T18:44:40.792Z,7.51
2022-10-19T18:47:07.512Z,7.45
2022-10-19T18:49:34.341Z,7.38
2022-10-19T18:52:01.123Z,7.29
2022-10-19T18:54:28.184Z,7.31
2022-10-19T18:56:55.594Z,7.43
2022-10-19T18:59:22.728Z,7.38
2022-10-19T19:01:49.766Z,7.30
2022-10-19T19:04:16.704Z,7.26
2022-10-19T19:06:43.473Z,7.40
2022-10-19T19:09:12.856Z,7.49
2022-10-19T19:11:41.200Z,7.46
2022-10-19T19:14:17.117Z,7.46
2022-10-19T19:16:45.349Z,7.45
2022-10-19T19:19:15.953Z,7.41
2022-10-19T19:21:44.569Z,7.38
2022-10-19T19:24:18.937Z,7.42
2022-10-19T19:26:50.492Z,7.40
2022-10-19T19:29:19.492Z,7.35
2022-10-19T19:31:47.851Z,7.16
2022-10-19T19:34:14.782Z,6.99
2022-10-19T19:36:46.738Z,6.98
2022-10-19T19:39:20.345Z,7.08
2022-10-19T19:41:49.240Z,7.03
2022-10-19T19:44:17.250Z,6.96
2022-10-19T19:46:44.015Z,6.90
2022-10-19T19:49:11.077Z,6.88
2022-10-19T19:51:37.913Z,6.90
2022-10-19T19:54:05.559Z,6.89
2022-10-19T19:56:32.862Z,6.85
2022-10-19T19:59:03.776Z,6.80
2022-10-19T20:01:32.490Z,6.75
2022-10-19T20:06:31.392Z,6.77
2022-10-19T20:08:58.093Z,6.79
2022-10-19T20:11:28.106Z,6.78
2022-10-19T20:13:55.677Z,6.74
2022-10-19T20:16:29.196Z,6.75
2022-10-19T20:19:20.172Z,6.76
2022-10-19T20:21:46.836Z,6.76
2022-10-19T20:24:13.632Z,6.77
2022-10-19T20:26:40.444Z,6.77
2022-10-19T20:29:07.261Z,6.67
2022-10-19T20:31:39.169Z,6.61
2022-10-19T20:34:14.142Z,6.63
2022-10-19T20:36:42.599Z,6.60
2022-10-19T20:39:10.154Z,6.58
2022-10-19T20:41:37.021Z,6.50
2022-10-19T20:44:03.903Z,6.40
2022-10-19T20:46:31.871Z,6.39
2022-10-19T20:49:01.406Z,6.35
2022-10-19T20:51:36.578Z,6.30
2022-10-19T20:54:08.306Z,6.20
2022-10-19T20:56:39.230Z,6.21
2022-10-19T20:59:16.747Z,6.25
2022-10-19T21:01:45.914Z,6.28
2022-10-19T21:04:15.596Z,6.25
2022-10-19T21:06:46.359Z,6.17
2022-10-19T21:09:23.380Z,6.12
2022-10-19T21:11:54.158Z,6.08
2022-10-19T21:14:28.140Z,6.07
2022-10-19T21:17:00.627Z,6.06
2022-10-19T21:19:29.618Z,6.03
2022-10-19T21:22:02.083Z,6.04
2022-10-19T21:24:33.444Z,6.01
2022-10-19T21:27:02.131Z,5.99
2022-10-19T21:29:37.454Z,5.99
2022-10-19T21:32:04.662Z,5.96
2022-10-19T21:34:32.542Z,5.94
2022-10-19T21:37:02.900Z,5.85
2022-10-19T21:39:29.737Z,5.78
2022-10-19T21:41:57.050Z,5.76
2022-10-19T21:44:23.947Z,5.75
2022-10-19T21:46:50.790Z,5.79
2022-10-19T21:49:18.129Z,5.77
2022-10-19T21:51:48.573Z,5.68
2022-10-19T21:54:20.008Z,5.64
2022-10-19T21:56:48.087Z,5.65
2022-10-19T21:59:16.145Z,5.64
2022-10-19T22:01:43.403Z,5.58
2022-10-19T22:04:17.543Z,5.57
2022-10-19T22:06:45.135Z,5.59
2022-10-19T22:09:21.090Z,5.59
2022-10-19T22:11:48.685Z,5.56
2022-10-19T22:14:17.037Z,5.53
2022-10-19T22:16:44.972Z,5.58
2022-10-19T22:19:12.546Z,5.53
2022-10-19T22:21:40.589Z,5.48
2022-10-19T22:24:13.025Z,5.45
2022-10-19T22:26:46.543Z,5.45
2022-10-19T22:29:14.198Z,5.39
2022-10-19T22:31:40.916Z,5.36
2022-10-19T22:34:13.029Z,5.38
2022-10-19T22:36:39.848Z,5.39
2022-10-19T22:39:07.455Z,5.40
2022-10-19T22:41:34.248Z,5.40
2022-10-19T22:44:01.129Z,5.34
2022-10-19T22:46:27.863Z,5.31
2022-10-19T22:48:54.611Z,5.32
2022-10-19T22:51:21.516Z,5.26
2022-10-19T22:53:48.275Z,5.26
2022-10-19T22:56:15.250Z,5.20
2022-10-19T22:58:42.004Z,5.17
2022-10-19T23:01:13.667Z,5.14
2022-10-19T23:03:41.415Z,5.06
2022-10-19T23:06:11.740Z,5.04
2022-10-19T23:08:39.572Z,5.03
2022-10-19T23:11:07.262Z,5.07
2022-10-19T23:13:33.990Z,5.12
2022-10-19T23:16:01.201Z,5.06
2022-10-19T23:18:34.881Z,4.99
2022-10-19T23:21:06.526Z,4.95
2022-10-19T23:23:36.862Z,4.92
2022-10-19T23:26:08.132Z,4.91
2022-10-19T23:28:37.653Z,4.96
2022-10-19T23:31:11.957Z,4.95
2022-10-19T23:33:39.804Z,4.95
2022-10-19T23:36:20.264Z,4.91
2022-10-19T23:38:49.747Z,4.90
2022-10-19T23:41:18.381Z,4.98
2022-10-19T23:43:45.910Z,4.97
2022-10-19T23:46:13.380Z,4.98
2022-10-19T23:48:41.972Z,5.04
2022-10-19T23:51:13.140Z,5.07
2022-10-19T23:53:43.302Z,5.04
2022-10-19T23:56:21.426Z,4.93
2022-10-19T23:58:49.202Z,4.92
